createdAt,value
2019-04-22T00:03:19.889Z,9.33
2019-04-22T00:06:07.251Z,8.13
2019-04-22T00:08:58.743Z,7.60
2019-04-22T00:11:51.354Z,9.80
2019-04-22T00:14:32.646Z,8.60
2019-04-22T00:17:00.639Z,7.27
2019-04-22T00:19:52.041Z,7.90
2019-04-22T00:22:32.208Z,9.27
2019-04-22T00:25:10.471Z,7.63
2019-04-22T00:27:33.888Z,8.67
2019-04-22T00:36:17.344Z,9.53
2019-04-22T00:39:03.384Z,6.80
2019-04-22T00:41:38.743Z,9.30
2019-04-22T00:44:26.004Z,7.87
2019-04-22T00:46:46.327Z,7.13
2019-04-22T00:51:52.784Z,8.87
2019-04-22T00:54:08.549Z,7.27
2019-04-22T00:56:34.169Z,8.33
2019-04-22T00:59:23.771Z,10.90
2019-04-22T01:02:13.356Z,7.97
2019-04-22T01:05:00.839Z,6.90
2019-04-22T01:07:49.186Z,7.77
2019-04-22T01:10:18.838Z,8.60
2019-04-22T01:13:04.889Z,7.53
2019-04-22T01:15:33.913Z,8.67
2019-04-22T01:17:57.831Z,7.83
2019-04-22T01:23:53.252Z,7.90
2019-04-22T01:26:36.212Z,8.23
2019-04-22T01:29:43.691Z,8.03
2019-04-22T01:32:23.906Z,8.37
2019-04-22T01:34:58.035Z,8.20
2019-04-22T01:37:28.844Z,7.90
2019-04-22T01:40:24.172Z,8.93
2019-04-22T01:43:18.635Z,9.43
2019-04-22T01:45:39.471Z,11.33
2019-04-22T01:48:32.939Z,8.87
2019-04-22T01:51:22.585Z,7.27
2019-04-22T01:53:50.265Z,7.80
2019-04-22T01:56:15.864Z,9.70
2019-04-22T01:58:34.912Z,7.77
2019-04-22T02:01:30.831Z,7.03
2019-04-22T02:04:20.240Z,7.60
2019-04-22T02:06:46.271Z,7.80
2019-04-22T02:12:00.484Z,8.80
2019-04-22T02:14:26.887Z,9.93
2019-04-22T02:16:56.158Z,9.40
2019-04-22T02:19:37.579Z,7.67
2019-04-22T02:21:51.225Z,8.07
2019-04-22T02:24:20.053Z,7.60
2019-04-22T02:27:10.709Z,7.57
2019-04-22T02:29:39.918Z,7.50
2019-04-22T02:32:27.774Z,7.80
2019-04-22T02:34:40.337Z,8.90
2019-04-22T02:36:58.328Z,7.10
2019-04-22T02:39:23.713Z,7.40
2019-04-22T02:41:54.757Z,8.73
2019-04-22T02:44:37.688Z,7.50
2019-04-22T02:47:04.509Z,7.33
2019-04-22T02:51:36.698Z,8.57
2019-04-22T02:54:36.417Z,8.30
2019-04-22T02:56:35.981Z,8.90
2019-04-22T02:59:14.278Z,7.40
2019-04-22T03:01:47.747Z,11.90
2019-04-22T03:04:20.654Z,8.50
2019-04-22T03:09:07.590Z,8.67
2019-04-22T03:11:59.309Z,9.77
2019-04-22T03:14:48.619Z,7.33
2019-04-22T03:17:30.851Z,8.40
2019-04-22T03:25:12.462Z,6.90
2019-04-22T03:43:50.594Z,7.23
2019-04-22T03:45:54.510Z,7.60
2019-04-22T03:48:26.258Z,10.90
2019-04-22T03:50:57.554Z,7.63
2019-04-22T03:53:22.298Z,8.97
2019-04-22T03:55:55.955Z,6.40
2019-04-22T03:58:11.211Z,8.63
2019-04-22T04:00:55.538Z,10.47
2019-04-22T04:03:12.018Z,10.03
2019-04-22T04:11:28.629Z,12.17
2019-04-22T04:13:53.646Z,15.60
2019-04-22T04:19:13.798Z,7.10
2019-04-22T04:24:22.467Z,9.73
2019-04-22T04:26:46.031Z,9.67
2019-04-22T04:29:17.397Z,7.23
2019-04-22T04:33:54.273Z,7.33
2019-04-22T04:36:32.379Z,10.00
2019-04-22T04:41:42.743Z,9.40
2019-04-22T04:45:11.011Z,8.03
2019-04-22T04:47:25.861Z,8.47
2019-04-22T04:49:54.417Z,8.37
2019-04-22T04:52:16.206Z,11.60
2019-04-22T04:54:47.740Z,9.00
2019-04-22T04:57:09.366Z,7.30
2019-04-22T04:59:53.294Z,8.87
2019-04-22T05:01:58.346Z,7.30
2019-04-22T05:04:54.443Z,6.47
2019-04-22T05:07:12.728Z,7.77
2019-04-22T05:09:29.619Z,11.70
2019-04-22T05:14:44.714Z,9.87
2019-04-22T05:17:35.045Z,10.83
2019-04-22T05:19:57.120Z,7.27
2019-04-22T05:22:23.158Z,7.00
2019-04-22T05:24:53.391Z,7.50
2019-04-22T05:30:19.558Z,8.70
2019-04-22T05:32:31.010Z,10.50
2019-04-22T05:35:23.123Z,10.33
2019-04-22T05:37:54.683Z,16.20
2019-04-22T05:43:00.373Z,15.17
2019-04-22T05:45:48.588Z,15.67
2019-04-22T05:48:18.877Z,12.70
2019-04-22T05:51:04.458Z,10.53
2019-04-22T05:53:37.758Z,10.77
2019-04-22T05:56:22.085Z,10.90
2019-04-22T05:58:31.189Z,10.60
2019-04-22T06:04:08.766Z,13.00
2019-04-22T06:06:51.630Z,9.90
2019-04-22T06:09:34.713Z,11.60
2019-04-22T06:12:40.186Z,11.20
2019-04-22T06:18:14.799Z,10.13
2019-04-22T06:20:38.398Z,9.87
2019-04-22T06:23:04.547Z,9.50
2019-04-22T06:25:39.106Z,9.90
2019-04-22T06:28:03.384Z,12.10
2019-04-22T06:30:43.194Z,11.87
2019-04-22T06:32:56.859Z,10.33
2019-04-22T06:35:31.215Z,8.70
2019-04-22T06:38:09.974Z,10.33
2019-04-22T06:40:24.683Z,8.10
2019-04-22T06:42:51.907Z,10.13
2019-04-22T06:45:21.899Z,7.77
2019-04-22T06:47:53.890Z,7.37
2019-04-22T06:50:13.829Z,9.83
2019-04-22T06:52:30.766Z,12.90
2019-04-22T06:57:30.498Z,7.20
2019-04-22T07:00:03.604Z,5.97
2019-04-22T07:02:33.624Z,8.80
2019-04-22T07:04:56.295Z,6.43
2019-04-22T07:07:21.546Z,6.43
2019-04-22T07:12:20.021Z,5.63
2019-04-22T07:14:48.436Z,5.23
2019-04-22T07:17:31.073Z,5.47
2019-04-22T07:19:38.310Z,5.10
2019-04-22T07:22:11.244Z,5.73
2019-04-22T07:27:04.693Z,5.43
2019-04-22T07:29:33.394Z,7.10
2019-04-22T07:32:04.724Z,4.87
2019-04-22T07:34:33.268Z,8.40
2019-04-22T07:36:58.740Z,5.17
2019-04-22T07:39:23.162Z,5.50
2019-04-22T07:41:51.384Z,6.77
2019-04-22T07:46:49.940Z,5.07
2019-04-22T07:49:33.926Z,5.70
2019-04-22T07:54:06.169Z,6.60
2019-04-22T07:56:36.536Z,5.90
2019-04-22T07:59:05.699Z,12.60
2019-04-22T08:01:32.347Z,4.87
2019-04-22T08:04:13.146Z,4.90
2019-04-22T08:06:31.006Z,5.43
2019-04-22T08:09:04.678Z,5.33
2019-04-22T08:11:37.152Z,5.43
2019-04-22T08:13:47.436Z,5.23
2019-04-22T08:16:16.338Z,4.43
2019-04-22T08:18:46.022Z,5.73
2019-04-22T08:21:10.546Z,6.03
2019-04-22T08:23:43.354Z,5.07
2019-04-22T08:26:05.486Z,4.63
2019-04-22T08:28:42.782Z,5.83
2019-04-22T08:31:51.396Z,4.63
2019-04-22T08:37:10.349Z,5.20
2019-04-22T08:39:15.373Z,4.63
2019-04-22T08:41:48.579Z,5.00
2019-04-22T08:44:07.646Z,6.23
2019-04-22T08:46:50.691Z,4.50
2019-04-22T08:48:59.030Z,4.20
2019-04-22T08:51:30.983Z,4.03
2019-04-22T08:54:09.435Z,6.17
2019-04-22T08:58:57.368Z,6.03
2019-04-22T09:01:22.767Z,4.30
2019-04-22T09:03:52.670Z,4.93
2019-04-22T09:06:29.591Z,4.17
2019-04-22T09:08:50.483Z,4.20
2019-04-22T09:11:13.215Z,6.10
2019-04-22T09:13:45.330Z,6.17
2019-04-22T09:16:16.611Z,3.93
2019-04-22T09:18:42.205Z,5.77
2019-04-22T09:21:14.301Z,4.17
2019-04-22T09:23:38.505Z,4.27
2019-04-22T09:26:06.656Z,4.43
2019-04-22T09:28:34.527Z,6.03
2019-04-22T09:31:40.936Z,4.70
2019-04-22T09:33:59.331Z,4.73
2019-04-22T09:36:33.901Z,6.10
2019-04-22T09:39:02.903Z,4.73
2019-04-22T09:41:31.527Z,4.20
2019-04-22T09:43:57.018Z,4.47
2019-04-22T09:46:28.422Z,4.23
2019-04-22T09:51:18.933Z,5.00
2019-04-22T09:53:54.785Z,4.30
2019-04-22T09:56:18.081Z,3.93
2019-04-22T09:58:44.721Z,4.07
2019-04-22T10:02:08.151Z,4.53
2019-04-22T10:04:20.152Z,4.73
2019-04-22T10:06:41.229Z,3.93
2019-04-22T10:09:34.723Z,4.23
2019-04-22T10:11:56.377Z,5.00
2019-04-22T10:14:13.902Z,4.60
2019-04-22T10:21:40.599Z,4.50
2019-04-22T10:24:19.257Z,4.30
2019-04-22T10:29:51.763Z,5.00
2019-04-22T10:32:06.782Z,4.70
2019-04-22T10:34:26.059Z,7.33
2019-04-22T10:36:45.211Z,9.23
2019-04-22T10:39:10.584Z,4.90
2019-04-22T10:41:37.082Z,3.63
2019-04-22T10:44:23.626Z,5.97
2019-04-22T10:46:49.780Z,3.80
2019-04-22T10:49:18.217Z,3.33
2019-04-22T10:51:46.488Z,4.90
2019-04-22T10:54:13.570Z,5.17
2019-04-22T10:56:41.098Z,4.70
2019-04-22T10:59:08.780Z,3.93
2019-04-22T11:01:38.499Z,4.07
2019-04-22T11:04:04.143Z,3.53
2019-04-22T11:06:33.721Z,4.77
2019-04-22T11:09:01.701Z,3.50
2019-04-22T11:14:13.121Z,3.40
2019-04-22T11:16:39.481Z,3.97
2019-04-22T11:19:07.721Z,3.80
2019-04-22T11:21:35.812Z,3.67
2019-04-22T11:24:02.995Z,5.80
2019-04-22T11:26:31.791Z,4.10
2019-04-22T11:28:59.343Z,4.60
2019-04-22T11:31:26.506Z,3.67
2019-04-22T11:33:54.468Z,5.87
2019-04-22T11:36:22.070Z,6.30
2019-04-22T11:38:53.038Z,4.10
2019-04-22T11:41:58.363Z,3.70
2019-04-22T11:44:25.435Z,3.93
2019-04-22T11:46:53.612Z,3.50
2019-04-22T11:49:21.846Z,3.87
2019-04-22T11:51:49.867Z,3.70
2019-04-22T11:54:17.039Z,3.43
2019-04-22T11:56:45.209Z,3.90
2019-04-22T11:59:12.970Z,3.87
2019-04-22T12:01:40.017Z,3.40
2019-04-22T12:04:07.459Z,3.17
2019-04-22T12:06:33.881Z,3.77
2019-04-22T12:08:59.702Z,3.33
2019-04-22T12:14:13.951Z,3.00
2019-04-22T12:16:41.366Z,3.80
2019-04-22T12:19:09.205Z,4.00
2019-04-22T12:21:37.133Z,3.33
2019-04-22T12:24:05.538Z,3.53
2019-04-22T12:26:32.520Z,3.90
2019-04-22T12:28:59.769Z,3.43
2019-04-22T12:31:27.154Z,3.47
2019-04-22T12:33:53.366Z,3.13
2019-04-22T12:36:20.285Z,3.30
2019-04-22T12:38:47.481Z,4.03
2019-04-22T12:41:16.074Z,4.17
2019-04-22T12:43:43.064Z,3.77
2019-04-22T12:46:10.357Z,3.53
2019-04-22T12:48:37.049Z,4.27
2019-04-22T12:51:05.017Z,4.13
2019-04-22T12:53:32.047Z,3.83
2019-04-22T12:56:01.146Z,3.50
2019-04-22T12:58:27.701Z,5.57
2019-04-22T13:00:55.160Z,5.70
2019-04-22T13:03:22.313Z,4.83
2019-04-22T13:05:49.491Z,4.37
2019-04-22T13:08:17.881Z,3.07
2019-04-22T13:10:53.409Z,3.40
2019-04-22T13:13:13.214Z,3.57
2019-04-22T13:15:41.287Z,2.83
2019-04-22T13:18:16.923Z,3.73
2019-04-22T13:20:36.537Z,3.40
2019-04-22T13:23:03.985Z,5.00
2019-04-22T13:25:32.426Z,3.90
2019-04-22T13:28:00.875Z,3.40
2019-04-22T13:31:09.761Z,3.10
2019-04-22T13:33:36.987Z,3.13
2019-04-22T13:36:05.998Z,3.93
2019-04-22T13:38:33.183Z,19.33
2019-04-22T13:41:12.204Z,5.83
2019-04-22T13:43:29.116Z,4.40
2019-04-22T13:45:56.246Z,3.60
2019-04-22T13:48:38.700Z,3.50
2019-04-22T13:51:20.809Z,5.60
2019-04-22T13:56:07.614Z,4.63
2019-04-22T13:58:26.743Z,3.97
2019-04-22T14:01:22.774Z,4.80
2019-04-22T14:04:10.199Z,3.50
2019-04-22T14:06:36.712Z,5.33
2019-04-22T14:09:44.545Z,5.13
2019-04-22T14:12:13.709Z,5.20
2019-04-22T14:14:40.708Z,8.33
2019-04-22T14:17:07.211Z,7.10
2019-04-22T14:19:34.062Z,17.97
2019-04-22T14:22:01.992Z,12.50
2019-04-22T14:24:30.028Z,7.87
2019-04-22T14:27:13.950Z,16.27
2019-04-22T14:29:26.015Z,10.30
2019-04-22T14:32:02.808Z,15.63
2019-04-22T14:34:20.819Z,14.70
2019-04-22T14:36:47.600Z,16.93
2019-04-22T14:39:15.675Z,4.53
2019-04-22T14:41:57.449Z,6.00
2019-04-22T14:47:11.269Z,4.30
2019-04-22T14:49:28.798Z,4.00
2019-04-22T14:51:56.061Z,3.80
2019-04-22T14:54:19.789Z,5.27
2019-04-22T14:56:30.531Z,6.00
2019-04-22T14:58:58.715Z,4.20
2019-04-22T15:01:24.923Z,4.60
2019-04-22T15:03:50.783Z,4.00
2019-04-22T15:06:18.065Z,7.23
2019-04-22T15:08:45.136Z,5.03
2019-04-22T15:11:13.160Z,4.30
2019-04-22T15:13:41.203Z,4.47
2019-04-22T15:16:27.880Z,3.90
2019-04-22T15:24:22.918Z,3.50
2019-04-22T15:26:50.617Z,3.57
2019-04-22T15:29:17.605Z,3.30
2019-04-22T15:31:45.114Z,3.27
2019-04-22T15:34:14.306Z,5.30
2019-04-22T15:36:41.984Z,4.00
2019-04-22T15:39:09.327Z,3.57
2019-04-22T15:41:36.813Z,3.93
2019-04-22T15:44:04.113Z,7.57
2019-04-22T15:46:29.978Z,6.73
2019-04-22T15:48:55.997Z,8.47
2019-04-22T15:51:22.572Z,4.47
2019-04-22T15:53:49.617Z,6.33
2019-04-22T15:56:16.734Z,5.23
2019-04-22T15:58:43.769Z,5.40
2019-04-22T16:01:19.307Z,3.80
2019-04-22T16:03:38.766Z,3.80
2019-04-22T16:06:06.090Z,4.10
2019-04-22T16:08:35.983Z,4.00
2019-04-22T16:11:00.227Z,3.77
2019-04-22T16:13:29.313Z,4.70
2019-04-22T16:15:54.467Z,4.90
2019-04-22T16:18:22.508Z,4.40
2019-04-22T16:20:50.298Z,5.27
2019-04-22T16:26:15.277Z,4.23
2019-04-22T16:28:41.228Z,5.30
2019-04-22T16:31:07.371Z,4.33
2019-04-22T16:33:38.378Z,7.80
2019-04-22T16:36:44.876Z,4.40
2019-04-22T16:39:52.471Z,6.53
2019-04-22T16:42:27.707Z,4.60
2019-04-22T16:44:47.507Z,5.80
2019-04-22T16:47:15.379Z,5.63
2019-04-22T16:49:41.594Z,4.27
2019-04-22T16:52:08.018Z,6.40
2019-04-22T16:54:35.126Z,4.57
2019-04-22T16:57:01.899Z,5.90
2019-04-22T16:59:28.985Z,6.07
2019-04-22T17:02:14.835Z,8.00
2019-04-22T17:05:01.995Z,8.77
2019-04-22T17:07:29.865Z,7.60
2019-04-22T17:09:57.510Z,7.70
2019-04-22T17:12:36.858Z,9.33
2019-04-22T17:14:56.787Z,7.00
2019-04-22T17:17:20.191Z,9.50
2019-04-22T17:19:47.219Z,7.60
2019-04-22T17:22:13.375Z,7.73
2019-04-22T17:24:41.573Z,7.30
2019-04-22T17:27:08.798Z,7.33
2019-04-22T17:29:34.861Z,10.97
2019-04-22T17:32:06.679Z,14.30
2019-04-22T17:34:29.659Z,6.53
2019-04-22T17:36:57.264Z,5.80
2019-04-22T17:39:35.931Z,7.70
2019-04-22T17:42:11.108Z,10.10
2019-04-22T17:44:42.351Z,6.77
2019-04-22T17:50:08.651Z,6.90
2019-04-22T17:52:33.375Z,7.93
2019-04-22T17:54:51.610Z,4.70
2019-04-22T17:57:24.092Z,4.87
2019-04-22T17:59:50.600Z,9.23
2019-04-22T18:04:55.107Z,4.83
2019-04-22T18:07:49.599Z,4.70
2019-04-22T18:12:40.047Z,3.87
2019-04-22T18:15:04.060Z,5.00
2019-04-22T18:17:29.104Z,4.60
2019-04-22T18:19:52.216Z,2.67
2019-04-22T18:22:16.397Z,3.00
2019-04-22T18:24:46.358Z,2.73
2019-04-22T18:27:31.897Z,2.60
2019-04-22T18:29:43.394Z,5.73
2019-04-22T18:32:02.800Z,2.73
2019-04-22T18:34:35.072Z,2.90
2019-04-22T18:37:05.801Z,3.60
2019-04-22T18:39:42.458Z,3.73
2019-04-22T18:42:03.395Z,2.93
2019-04-22T18:44:35.105Z,2.67
2019-04-22T18:46:56.362Z,3.97
2019-04-22T18:49:30.692Z,3.47
2019-04-22T18:52:04.578Z,3.80
2019-04-22T18:54:45.669Z,2.80
2019-04-22T18:57:15.986Z,5.40
2019-04-22T18:59:28.885Z,3.17
2019-04-22T19:01:58.635Z,3.40
2019-04-22T19:04:27.435Z,3.30
2019-04-22T19:07:07.312Z,3.87
2019-04-22T19:09:45.699Z,2.83
2019-04-22T19:12:18.128Z,4.23
2019-04-22T19:14:43.612Z,3.67
2019-04-22T19:17:11.913Z,3.67
2019-04-22T19:24:19.230Z,3.93
2019-04-22T19:29:22.301Z,3.23
2019-04-22T19:31:53.114Z,4.97
2019-04-22T19:34:16.243Z,4.03
2019-04-22T19:36:46.306Z,4.60
2019-04-22T19:39:09.060Z,3.90
2019-04-22T19:41:42.216Z,3.90
2019-04-22T19:44:08.699Z,4.57
2019-04-22T19:46:35.278Z,3.10
2019-04-22T19:49:03.817Z,4.60
2019-04-22T19:51:44.035Z,3.90
2019-04-22T19:53:56.271Z,3.97
2019-04-22T19:56:21.238Z,4.90
2019-04-22T19:58:49.311Z,4.17
2019-04-22T20:01:27.320Z,5.67
2019-04-22T20:04:24.761Z,4.63
2019-04-22T20:06:44.072Z,6.17
2019-04-22T20:09:13.663Z,4.37
2019-04-22T20:11:41.767Z,5.13
2019-04-22T20:14:12.496Z,5.23
2019-04-22T20:16:34.373Z,12.53
2019-04-22T20:19:06.856Z,5.27
2019-04-22T20:21:38.787Z,6.00
2019-04-22T20:24:09.965Z,6.03
2019-04-22T20:27:33.523Z,5.20
2019-04-22T20:29:58.035Z,5.87
2019-04-22T20:32:22.086Z,5.57
2019-04-22T20:34:57.622Z,5.90
2019-04-22T20:37:42.548Z,5.73
2019-04-22T20:39:47.887Z,6.27
2019-04-22T20:42:33.710Z,6.00
2019-04-22T20:44:46.180Z,8.00
2019-04-22T20:47:12.223Z,6.60
2019-04-22T20:49:44.641Z,11.13
2019-04-22T20:52:16.379Z,5.60
2019-04-22T20:54:37.360Z,7.07
2019-04-22T20:56:57.792Z,6.33
2019-04-22T20:59:31.457Z,8.00
2019-04-22T21:01:55.245Z,6.50
2019-04-22T21:04:19.631Z,6.43
2019-04-22T21:06:54.322Z,9.87
2019-04-22T21:09:22.112Z,6.00
2019-04-22T21:11:46.711Z,6.93
2019-04-22T21:14:14.781Z,9.33
2019-04-22T21:16:43.126Z,9.80
2019-04-22T21:19:21.672Z,6.87
2019-04-22T21:21:47.031Z,6.87
2019-04-22T21:23:59.470Z,6.53
2019-04-22T21:26:35.353Z,7.33
2019-04-22T21:29:04.380Z,6.90
2019-04-22T21:31:33.721Z,7.27
2019-04-22T21:33:59.101Z,6.03
2019-04-22T21:36:29.967Z,6.20
2019-04-22T21:38:53.119Z,6.43
2019-04-22T21:41:20.463Z,8.07
2019-04-22T21:43:53.686Z,6.53
2019-04-22T21:46:19.143Z,6.70
2019-04-22T21:48:50.896Z,7.57
2019-04-22T21:51:18.818Z,8.27
2019-04-22T21:53:50.388Z,7.60
2019-04-22T21:56:29.310Z,7.83
2019-04-22T21:58:57.357Z,8.07
2019-04-22T22:04:32.142Z,8.70
2019-04-22T22:06:51.212Z,7.60
2019-04-22T22:09:33.444Z,7.20
2019-04-22T22:11:52.892Z,7.60
2019-04-22T22:14:26.249Z,8.33
2019-04-22T22:16:47.248Z,9.10
2019-04-22T22:19:17.797Z,8.83
2019-04-22T22:21:51.474Z,10.20
2019-04-22T22:24:18.048Z,7.50
2019-04-22T22:26:44.586Z,9.73
2019-04-22T22:29:24.278Z,8.40
2019-04-22T22:34:12.915Z,8.37
2019-04-22T22:36:30.501Z,8.83
2019-04-22T22:39:00.393Z,9.93
2019-04-22T22:41:10.066Z,8.33
2019-04-22T22:43:43.249Z,6.73
2019-04-22T22:46:21.728Z,6.87
2019-04-22T22:49:00.349Z,9.80
2019-04-22T22:51:30.610Z,9.67
2019-04-22T22:53:52.597Z,9.80
2019-04-22T22:56:16.017Z,6.83
2019-04-22T22:58:50.497Z,7.00
2019-04-22T23:01:09.934Z,7.80
2019-04-22T23:06:32.773Z,8.37
2019-04-22T23:09:01.459Z,7.70
2019-04-22T23:11:40.387Z,7.80
2019-04-22T23:14:14.869Z,7.30
2019-04-22T23:16:47.443Z,8.57
2019-04-22T23:19:07.447Z,7.53
2019-04-22T23:21:39.674Z,6.50
2019-04-22T23:27:16.063Z,8.57
2019-04-22T23:35:29.318Z,7.47
2019-04-22T23:38:00.124Z,6.33
2019-04-22T23:43:00.073Z,7.80
2019-04-22T23:46:02.663Z,7.97
2019-04-22T23:48:27.170Z,6.97
2019-04-22T23:51:23.681Z,7.13
2019-04-22T23:56:15.302Z,7.30
2019-04-22T23:59:08.292Z,7.10
